Time;durP1;ratioP1;P1;durP2;ratioP2;P2;SDS_P1;SDS_P2;PMS_P1;PMS_P2;Temp;Humidity;BMP_temperature;BMP_pressure;BME280_temperature;BME280_humidity;BME280_pressure;Samples;Min_cycle;Max_cycle;Signal;HPM_P1;HPM_P2
2022/03/10 00:00:12;;;;;;;40.67;13.93;;;-3.50;99.90;;;;;;4881216;29;20656;-84
2022/03/10 00:02:39;;;;;;;42.07;14.87;;;-3.20;99.90;;;;;;4881075;29;20189;-85
2022/03/10 00:05:05;;;;;;;49.10;17.40;;;-3.40;99.90;;;;;;4882451;29;20211;-84
2022/03/10 00:07:31;;;;;;;31.90;14.10;;;;;;;;;;4882692;29;20190;-84
2022/03/10 00:09:57;;;;;;;30.57;12.20;;;;;;;;;;4881204;29;20197;-84
2022/03/10 00:12:23;;;;;;;30.40;13.30;;;;;;;;;;4882596;29;20182;-84
2022/03/10 00:14:49;;;;;;;30.10;13.77;;;;;;;;;;4881094;29;20197;-84
2022/03/10 00:17:15;;;;;;;33.30;13.40;;;;;;;;;;4881119;29;20565;-84
2022/03/10 00:19:41;;;;;;;43.83;15.20;;;-3.50;99.90;;;;;;4881017;29;20199;-84
2022/03/10 00:22:11;;;;;;;51.03;17.60;;;;;;;;;;4866021;29;20633;-85
2022/03/10 00:24:37;;;;;;;37.23;13.83;;;;;;;;;;4882263;29;20253;-85
2022/03/10 00:27:04;;;;;;;38.00;15.30;;;;;;;;;;4880981;29;20351;-84
2022/03/10 00:29:30;;;;;;;32.50;13.30;;;;;;;;;;4880871;29;20186;-84
2022/03/10 00:31:56;;;;;;;39.97;15.00;;;;;;;;;;4882350;29;20663;-84
2022/03/10 00:34:22;;;;;;;29.53;12.47;;;;;;;;;;4865718;29;20200;-83
2022/03/10 00:36:48;;;;;;;23.93;10.03;;;;;;;;;;4882046;29;20182;-84
2022/03/10 00:39:14;;;;;;;28.27;11.03;;;;;;;;;;4882074;29;20188;-84
2022/03/10 00:41:40;;;;;;;30.27;12.57;;;;;;;;;;4880261;29;20189;-84
2022/03/10 00:44:06;;;;;;;34.20;15.23;;;;;;;;;;4865037;29;20189;-84
2022/03/10 00:46:32;;;;;;;36.67;13.83;;;;;;;;;;4865274;29;20193;-85
2022/03/10 00:48:58;;;;;;;23.90;10.63;;;;;;;;;;4880310;29;20657;-83
2022/03/10 00:51:24;;;;;;;22.87;10.20;;;-3.80;99.90;;;;;;4880438;29;20191;-84
2022/03/10 00:53:50;;;;;;;25.97;12.20;;;;;;;;;;4880107;29;20671;-84
2022/03/10 00:56:16;;;;;;;28.53;11.13;;;;;;;;;;4865091;29;20197;-84
2022/03/10 00:58:42;;;;;;;27.50;11.37;;;;;;;;;;4880385;29;20186;-85
2022/03/10 01:01:10;;;;;;;31.90;11.67;;;-3.80;99.90;;;;;;4880449;29;20644;-84
2022/03/10 01:03:36;;;;;;;44.57;15.30;;;;;;;;;;4880089;29;20215;-84
2022/03/10 01:06:02;;;;;;;30.77;11.57;;;;;;;;;;4880316;29;20277;-84
2022/03/10 01:08:28;;;;;;;31.67;11.20;;;;;;;;;;4880237;29;20198;-84
2022/03/10 01:10:54;;;;;;;35.47;11.87;;;;;;;;;;4881447;29;20194;-84
2022/03/10 01:13:20;;;;;;;34.60;14.20;;;;;;;;;;4881268;29;20186;-84
2022/03/10 01:15:47;;;;;;;28.73;12.13;;;-3.90;99.90;;;;;;4879805;29;20660;-84
2022/03/10 01:18:14;;;;;;;32.50;13.80;;;-3.90;99.90;;;;;;4864462;29;20194;-84
2022/03/10 01:20:40;;;;;;;31.43;12.00;;;;;;;;;;4881282;29;20241;-84
2022/03/10 01:23:09;;;;;;;36.87;14.17;;;;;;;;;;4879835;29;20218;-84
2022/03/10 01:25:35;;;;;;;27.53;11.67;;;;;;;;;;4882542;29;20210;-84
2022/03/10 01:28:01;;;;;;;25.53;11.00;;;;;;;;;;4882516;29;20190;-83
2022/03/10 01:30:27;;;;;;;23.73;9.77;;;;;;;;;;4881358;29;20674;-84
2022/03/10 01:32:53;;;;;;;40.93;13.33;;;;;;;;;;4881143;29;20182;-83
2022/03/10 01:35:19;;;;;;;35.73;13.63;;;;;;;;;;4866484;29;20197;-83
2022/03/10 01:37:45;;;;;;;24.50;9.33;;;;;;;;;;4888202;29;20545;-83
2022/03/10 01:40:13;;;;;;;30.13;11.33;;;-4.30;99.90;;;;;;4886773;29;20662;-83
2022/03/10 01:42:40;;;;;;;44.07;17.53;;;;;;;;;;4887054;29;20182;-83
2022/03/10 01:45:06;;;;;;;33.40;12.17;;;-4.50;99.90;;;;;;4883706;29;20253;-84
2022/03/10 01:47:34;;;;;;;29.43;11.13;;;-4.20;99.90;;;;;;4866433;29;20281;-83
2022/03/10 01:50:00;;;;;;;25.57;11.60;;;;;;;;;;4880779;29;20174;-83
2022/03/10 01:52:26;;;;;;;35.93;12.73;;;;;;;;;;4879069;29;20289;-83
2022/03/10 01:54:52;;;;;;;41.70;15.33;;;;;;;;;;4879867;29;20194;-83
2022/03/10 01:57:18;;;;;;;32.27;12.37;;;;;;;;;;4880372;29;20289;-84
2022/03/10 01:59:44;;;;;;;26.90;11.67;;;;;;;;;;4880393;29;20216;-84
2022/03/10 02:02:10;;;;;;;27.10;12.33;;;;;;;;;;4880793;29;20182;-83
2022/03/10 02:04:36;;;;;;;21.63;9.97;;;;;;;;;;4880196;29;20348;-83
2022/03/10 02:07:04;;;;;;;24.90;11.10;;;-4.40;99.90;;;;;;4880162;29;20198;-83
2022/03/10 02:12:15;;;;;;;55.97;21.63;;;;;;;;;;4880894;29;20686;-83
2022/03/10 02:17:26;;;;;;;43.10;16.17;;;;;;;;;;4903686;29;20207;-83
2022/03/10 02:19:58;;;;;;;35.13;12.37;;;-4.50;99.90;;;;;;4891149;29;20190;-83
2022/03/10 02:22:26;;;;;;;18.27;8.83;;;-4.40;99.90;;;;;;4880541;29;20643;-83
2022/03/10 02:24:52;;;;;;;28.40;10.30;;;;;;;;;;4879957;29;20221;-83
2022/03/10 02:27:20;;;;;;;27.83;10.10;;;-4.60;99.90;;;;;;4878937;29;20221;-83
2022/03/10 02:29:48;;;;;;;25.37;9.10;;;-4.50;99.90;;;;;;4879827;29;20201;-83
2022/03/10 02:32:14;;;;;;;19.00;8.03;;;-4.50;99.90;;;;;;4879879;29;20233;-83
2022/03/10 02:34:41;;;;;;;19.07;7.57;;;-4.50;99.90;;;;;;4863205;29;20632;-83
2022/03/10 02:37:08;;;;;;;15.87;7.33;;;;;;;;;;4878567;29;20193;-83
2022/03/10 02:39:34;;;;;;;14.73;7.77;;;;;;;;;;4879909;29;20186;-83
2022/03/10 02:42:00;;;;;;;21.37;9.63;;;;;;;;;;4878476;29;20585;-83
2022/03/10 02:44:26;;;;;;;23.00;9.60;;;;;;;;;;4878438;29;20701;-83
2022/03/10 02:46:52;;;;;;;18.30;9.00;;;;;;;;;;4879445;29;20620;-84
2022/03/10 02:49:18;;;;;;;15.93;8.13;;;;;;;;;;4879591;29;20548;-83
2022/03/10 02:51:44;;;;;;;17.60;8.60;;;;;;;;;;4878727;29;20182;-83
2022/03/10 02:54:11;;;;;;;15.23;7.70;;;-4.70;99.90;;;;;;4879456;29;20710;-83
2022/03/10 02:56:37;;;;;;;22.83;8.23;;;;;;;;;;4863164;29;20715;-83
2022/03/10 02:59:03;;;;;;;14.70;8.33;;;;;;;;;;4878463;29;20233;-83
2022/03/10 03:01:30;;;;;;;20.70;8.37;;;-4.80;99.90;;;;;;4878486;29;20283;-83
2022/03/10 03:03:56;;;;;;;28.20;9.00;;;;;;;;;;4879489;29;20186;-83
2022/03/10 03:06:22;;;;;;;19.90;9.10;;;;;;;;;;4882184;29;20217;-83
2022/03/10 03:08:48;;;;;;;18.77;7.47;;;;;;;;;;4882319;29;20192;-83
2022/03/10 03:11:14;;;;;;;17.80;7.30;;;;;;;;;;4866405;29;20568;-82
2022/03/10 03:13:40;;;;;;;15.70;7.40;;;;;;;;;;4883630;29;20189;-83
2022/03/10 03:16:06;;;;;;;16.03;7.47;;;;;;;;;;4866687;29;20283;-83
2022/03/10 03:18:32;;;;;;;15.33;7.53;;;;;;;;;;4866691;29;20615;-82
2022/03/10 03:20:59;;;;;;;13.70;6.40;;;;;;;;;;4883000;29;20257;-83
2022/03/10 03:23:25;;;;;;;15.23;7.07;;;;;;;;;;4883333;29;20184;-83
2022/03/10 03:25:51;;;;;;;13.53;6.17;;;;;;;;;;4882872;29;20648;-84
2022/03/10 03:28:17;;;;;;;14.97;7.13;;;;;;;;;;4866220;29;20198;-82
2022/03/10 03:30:43;;;;;;;13.77;7.77;;;;;;;;;;4881879;29;20185;-82
2022/03/10 03:33:09;;;;;;;16.73;8.03;;;;;;;;;;4881654;29;20220;-82
2022/03/10 03:35:35;;;;;;;11.87;5.83;;;;;;;;;;4881751;29;20663;-81
2022/03/10 03:38:01;;;;;;;20.37;6.80;;;;;;;;;;4881603;29;20216;-83
2022/03/10 03:40:27;;;;;;;15.77;7.50;;;;;;;;;;4881479;29;20280;-82
2022/03/10 03:42:53;;;;;;;11.87;6.67;;;;;;;;;;4881519;29;20193;-82
2022/03/10 03:45:19;;;;;;;15.73;6.33;;;;;;;;;;4881525;29;20276;-82
2022/03/10 03:47:45;;;;;;;14.90;6.73;;;;;;;;;;4865849;29;20284;-82
2022/03/10 03:50:12;;;;;;;10.73;6.43;;;-5.00;99.90;;;;;;4881599;29;20221;-82
2022/03/10 03:52:38;;;;;;;15.90;7.43;;;;;;;;;;4882417;29;20258;-82
2022/03/10 03:55:05;;;;;;;12.90;6.57;;;-4.90;99.90;;;;;;4882490;29;20699;-82
2022/03/10 03:57:31;;;;;;;14.00;6.97;;;;;;;;;;4881447;29;20192;-82
2022/03/10 03:59:57;;;;;;;12.23;5.67;;;;;;;;;;4881521;29;20197;-82
2022/03/10 04:02:23;;;;;;;12.77;5.60;;;;;;;;;;4866123;29;20559;-83
2022/03/10 04:04:49;;;;;;;14.13;5.90;;;;;;;;;;4881293;29;20681;-82
2022/03/10 04:07:15;;;;;;;16.77;6.93;;;;;;;;;;4881306;29;20188;-82
2022/03/10 04:09:41;;;;;;;13.70;6.77;;;;;;;;;;4881428;29;20242;-83
2022/03/10 04:12:07;;;;;;;16.63;7.83;;;-5.40;99.90;;;;;;4882476;29;20193;-82
2022/03/10 04:14:33;;;;;;;12.03;6.83;;;;;;;;;;4882445;29;20600;-83
2022/03/10 04:16:59;;;;;;;12.73;7.10;;;;;;;;;;4864512;29;20673;-82
2022/03/10 04:19:25;;;;;;;11.63;6.27;;;;;;;;;;4882553;29;20281;-83
2022/03/10 04:21:51;;;;;;;20.70;7.27;;;;;;;;;;4882288;29;20192;-83
2022/03/10 04:24:18;;;;;;;12.17;6.67;;;;;;;;;;4880691;29;20270;-83
2022/03/10 04:26:44;;;;;;;15.83;6.47;;;;;;;;;;4881865;29;20185;-83
2022/03/10 04:29:10;;;;;;;17.47;7.57;;;;;;;;;;4865405;29;20193;-83
2022/03/10 04:31:36;;;;;;;15.03;6.97;;;;;;;;;;4882004;29;20194;-83
2022/03/10 04:34:04;;;;;;;19.20;8.47;;;;;;;;;;4881732;29;20647;-88
2022/03/10 04:36:30;;;;;;;17.37;7.30;;;;;;;;;;4880459;29;20189;-82
2022/03/10 04:38:56;;;;;;;15.00;7.00;;;;;;;;;;4881914;29;20187;-82
2022/03/10 04:41:22;;;;;;;17.37;7.07;;;;;;;;;;4881710;29;20182;-82
2022/03/10 04:43:48;;;;;;;10.83;6.57;;;;;;;;;;4865055;29;20602;-83
2022/03/10 04:46:14;;;;;;;15.00;6.97;;;;;;;;;;4864813;29;20224;-83
2022/03/10 04:48:40;;;;;;;15.67;7.03;;;;;;;;;;4864774;29;20201;-82
2022/03/10 04:51:06;;;;;;;13.90;6.70;;;;;;;;;;4880274;29;20244;-83
2022/03/10 04:53:32;;;;;;;16.47;6.87;;;;;;;;;;4864623;29;20271;-83
2022/03/10 04:55:58;;;;;;;17.07;6.93;;;;;;;;;;4880384;29;20235;-83
2022/03/10 04:58:24;;;;;;;13.33;7.30;;;;;;;;;;4881537;29;20639;-82
2022/03/10 05:00:50;;;;;;;14.43;7.87;;;;;;;;;;4864676;29;20285;-82
2022/03/10 05:03:16;;;;;;;14.97;7.53;;;;;;;;;;4881142;29;20189;-83
2022/03/10 05:05:42;;;;;;;11.73;6.83;;;;;;;;;;4880088;29;20216;-83
2022/03/10 05:08:08;;;;;;;13.07;6.27;;;;;;;;;;4880077;29;20195;-83
2022/03/10 05:10:34;;;;;;;14.23;7.37;;;;;;;;;;4879955;29;20646;-83
2022/03/10 05:13:01;;;;;;;18.57;8.87;;;;;;;;;;4875764;29;20236;-83
2022/03/10 05:15:30;;;;;;;15.07;7.93;;;;;;;;;;4860077;29;20211;-83
2022/03/10 05:17:56;;;;;;;17.63;7.73;;;;;;;;;;4871832;29;20209;-86
2022/03/10 05:20:24;;;;;;;15.80;8.53;;;;;;;;;;4862287;29;20317;-84
2022/03/10 05:22:57;;;;;;;18.27;8.63;;;-5.40;99.90;;;;;;4873468;29;20224;-85
2022/03/10 05:25:30;;;;;;;21.23;8.20;;;-5.40;99.90;;;;;;4873612;29;20852;-83
2022/03/10 05:27:56;;;;;;;18.33;7.23;;;;;;;;;;4878717;29;20191;-87
2022/03/10 05:30:22;;;;;;;15.27;7.87;;;;;;;;;;4876631;29;20193;-84
2022/03/10 05:32:51;;;;;;;14.27;7.70;;;-5.30;99.90;;;;;;4871374;29;20188;-83
2022/03/10 05:35:18;;;;;;;12.83;6.77;;;;;;;;;;4886009;29;20190;-85
2022/03/10 05:37:45;;;;;;;16.70;7.63;;;-5.20;99.90;;;;;;4885992;29;20203;-84
2022/03/10 05:40:21;;;;;;;18.20;8.40;;;-5.00;99.90;;;;;;4865437;29;20188;-85
2022/03/10 05:42:50;;;;;;;13.83;7.10;;;-5.10;99.90;;;;;;4886798;29;20654;-85
2022/03/10 05:45:20;;;;;;;13.57;7.20;;;;;;;;;;4860601;29;20229;-84
2022/03/10 05:47:46;;;;;;;10.20;6.53;;;;;;;;;;4876405;29;20224;-85
2022/03/10 05:50:12;;;;;;;16.93;7.80;;;;;;;;;;4896581;29;20206;-85
2022/03/10 05:52:38;;;;;;;22.83;7.93;;;;;;;;;;4859845;29;20775;-84
2022/03/10 05:55:05;;;;;;;19.53;9.73;;;-4.90;99.90;;;;;;4858771;29;20721;-84
2022/03/10 05:57:31;;;;;;;15.97;7.23;;;;;;;;;;4874937;29;20201;-83
2022/03/10 05:59:57;;;;;;;13.07;7.30;;;;;;;;;;4883335;29;20207;-83
2022/03/10 06:02:24;;;;;;;14.60;7.43;;;-4.80;99.90;;;;;;4878939;29;20206;-84
2022/03/10 06:04:50;;;;;;;20.63;8.27;;;;;;;;;;4866614;29;20327;-83
2022/03/10 06:07:16;;;;;;;19.93;9.83;;;;;;;;;;4863459;29;20208;-84
2022/03/10 06:09:42;;;;;;;26.00;10.03;;;-4.60;99.90;;;;;;4890992;29;20181;-91
2022/03/10 06:12:09;;;;;;;30.10;11.30;;;-4.60;99.90;;;;;;4901816;29;20192;-90
2022/03/10 06:14:35;;;;;;;51.67;18.07;;;;;;;;;;4876162;29;20299;-83
2022/03/10 06:17:02;;;;;;;43.57;16.47;;;;;;;;;;4880269;29;20270;-83
2022/03/10 06:19:27;;;;;;;49.20;20.03;;;;;;;;;;4876872;29;20666;-83
2022/03/10 06:21:53;;;;;;;23.20;10.83;;;;;;;;;;4872171;29;20225;-83
2022/03/10 06:24:20;;;;;;;28.27;11.10;;;;;;;;;;4865547;29;20197;-81
2022/03/10 06:26:46;;;;;;;22.10;9.17;;;;;;;;;;4864560;29;20210;-84
2022/03/10 06:29:13;;;;;;;27.30;13.37;;;;;;;;;;4866960;29;20530;-83
2022/03/10 06:31:42;;;;;;;30.27;12.77;;;;;;;;;;4867933;29;20190;-87
2022/03/10 06:34:08;;;;;;;30.27;11.87;;;;;;;;;;4858870;29;20273;-84
2022/03/10 06:36:34;;;;;;;24.07;9.43;;;;;;;;;;4860805;29;20776;-84
2022/03/10 06:39:00;;;;;;;23.87;9.47;;;;;;;;;;4844552;29;20667;-83
2022/03/10 06:41:26;;;;;;;20.23;8.33;;;;;;;;;;4859350;29;20191;-83
2022/03/10 06:43:52;;;;;;;25.97;9.90;;;;;;;;;;4861267;29;20650;-84
2022/03/10 06:46:19;;;;;;;22.07;8.63;;;-3.50;99.90;;;;;;4873436;29;20250;-85
2022/03/10 06:48:45;;;;;;;25.10;10.23;;;;;;;;;;4878646;29;20228;-84
2022/03/10 06:51:11;;;;;;;29.03;8.53;;;;;;;;;;4879725;29;20196;-84
2022/03/10 06:53:37;;;;;;;24.73;9.63;;;;;;;;;;4879056;29;20262;-85
2022/03/10 06:56:03;;;;;;;22.13;9.50;;;-3.60;99.90;;;;;;4879040;29;20541;-82
2022/03/10 06:58:29;;;;;;;18.03;6.47;;;;;;;;;;4878335;29;20201;-85
2022/03/10 07:00:55;;;;;;;16.23;6.90;;;;;;;;;;4862649;29;20193;-84
2022/03/10 07:03:22;;;;;;;25.53;8.60;;;;;;;;;;4878455;29;20182;-83
2022/03/10 07:05:48;;;;;;;15.10;6.53;;;;;;;;;;4878165;29;20588;-83
2022/03/10 07:08:14;;;;;;;27.40;10.40;;;;;;;;;;4878274;29;20671;-85
2022/03/10 07:10:40;;;;;;;27.70;11.17;;;;;;;;;;4880136;29;20730;-85
2022/03/10 07:13:07;;;;;;;17.13;7.03;;;-3.00;99.90;;;;;;4878202;29;20186;-85
2022/03/10 07:15:33;;;;;;;29.33;10.27;;;;;;;;;;4879079;29;20253;-84
2022/03/10 07:17:59;;;;;;;28.27;9.53;;;;;;;;;;4862982;29;20186;-84
2022/03/10 07:20:25;;;;;;;46.80;15.37;;;;;;;;;;4879390;29;20518;-85
2022/03/10 07:22:51;;;;;;;45.30;14.87;;;;;;;;;;4885629;29;20182;-82
2022/03/10 07:25:20;;;;;;;18.10;8.87;;;;;;;;;;4887038;29;20219;-84
2022/03/10 07:27:46;;;;;;;11.03;6.00;;;;;;;;;;4881450;29;20249;-85
2022/03/10 07:30:12;;;;;;;25.70;10.80;;;-3.00;99.90;;;;;;4863544;29;20284;-85
2022/03/10 07:32:38;;;;;;;30.47;11.43;;;;;;;;;;4863266;29;20201;-86
2022/03/10 07:35:04;;;;;;;8.43;5.27;;;;;;;;;;4878514;29;20196;-86
2022/03/10 07:37:30;;;;;;;15.07;6.50;;;;;;;;;;4878403;29;20644;-85
2022/03/10 07:39:57;;;;;;;157.00;51.27;;;-2.40;99.90;;;;;;4878429;29;20658;-86
2022/03/10 07:42:23;;;;;;;123.03;38.23;;;;;;;;;;4878515;29;20190;-85
2022/03/10 07:44:49;;;;;;;190.60;58.10;;;;;;;;;;4878545;29;20229;-86
2022/03/10 07:47:15;;;;;;;57.43;18.60;;;;;;;;;;4879512;29;20578;-86
2022/03/10 07:49:41;;;;;;;106.07;35.83;;;;;;;;;;4877493;29;20197;-86
2022/03/10 07:52:07;;;;;;;86.77;28.67;;;-2.30;99.90;;;;;;4881206;29;20655;-86
2022/03/10 07:54:33;;;;;;;23.93;9.27;;;-2.20;99.90;;;;;;4865596;29;20277;-86
2022/03/10 07:56:59;;;;;;;47.37;18.83;;;;;;;;;;4881049;29;20178;-86
2022/03/10 07:59:25;;;;;;;63.57;23.97;;;;;;;;;;4882908;29;20186;-86
2022/03/10 08:01:51;;;;;;;23.27;10.53;;;;;;;;;;4866140;29;20287;-85
2022/03/10 08:04:17;;;;;;;42.37;16.80;;;;;;;;;;4881053;29;20245;-86
2022/03/10 08:06:44;;;;;;;25.40;10.27;;;;;;;;;;4865465;29;20215;-85
2022/03/10 08:09:10;;;;;;;23.87;10.93;;;;;;;;;;4880834;29;20641;-85
2022/03/10 08:11:40;;;;;;;15.00;6.83;;;-2.10;99.90;;;;;;4865393;29;20554;-86
2022/03/10 08:14:06;;;;;;;17.57;7.57;;;;;;;;;;4881054;29;20589;-85
2022/03/10 08:16:33;;;;;;;15.10;8.13;;;;;;;;;;4881936;29;20187;-85
2022/03/10 08:18:59;;;;;;;16.47;7.47;;;;;;;;;;4882389;29;20189;-85
2022/03/10 08:21:33;;;;;;;17.17;8.03;;;-1.80;99.90;;;;;;4881921;29;20246;-86
2022/03/10 08:23:59;;;;;;;12.77;6.87;;;;;;;;;;4865526;29;20273;-86
2022/03/10 08:26:25;;;;;;;15.33;7.53;;;;;;;;;;4864796;29;20221;-86
2022/03/10 08:28:52;;;;;;;17.10;8.40;;;;;;;;;;4880800;29;20681;-85
2022/03/10 08:31:20;;;;;;;16.23;7.13;;;-1.60;99.90;;;;;;4867464;29;20192;-85
2022/03/10 08:33:46;;;;;;;12.03;6.47;;;;;;;;;;4883031;29;20192;-85
2022/03/10 08:36:13;;;;;;;13.47;6.93;;;;;;;;;;4882818;29;20686;-86
2022/03/10 08:38:39;;;;;;;24.57;10.93;;;;;;;;;;4888067;29;20190;-86
2022/03/10 08:41:05;;;;;;;17.17;8.10;;;;;;;;;;4899827;29;20194;-86
2022/03/10 08:43:32;;;;;;;14.63;6.47;;;;;;;;;;4883283;29;20219;-85
2022/03/10 08:46:01;;;;;;;11.40;6.17;;;-1.20;99.90;;;;;;4896930;29;20211;-85
2022/03/10 08:48:27;;;;;;;9.73;5.37;;;;;;;;;;4885345;29;20179;-86
2022/03/10 08:50:53;;;;;;;12.20;6.00;;;;;;;;;;4883234;29;20182;-85
2022/03/10 08:53:19;;;;;;;10.27;5.80;;;;;;;;;;4883311;29;20323;-85
2022/03/10 08:55:45;;;;;;;9.33;5.60;;;;;;;;;;4882507;29;20195;-85
2022/03/10 08:58:11;;;;;;;8.93;5.30;;;;;;;;;;4865748;29;20187;-84
2022/03/10 09:00:38;;;;;;;11.37;6.30;;;;;;;;;;4880690;29;20293;-85
2022/03/10 09:03:04;;;;;;;10.20;5.73;;;;;;;;;;4864289;29;20215;-84
2022/03/10 09:05:30;;;;;;;10.60;6.10;;;;;;;;;;4881338;29;20218;-84
2022/03/10 09:07:56;;;;;;;14.57;6.77;;;;;;;;;;4864732;29;20694;-84
2022/03/10 09:10:22;;;;;;;10.27;5.50;;;;;;;;;;4880445;29;20265;-84
2022/03/10 09:12:48;;;;;;;14.00;6.37;;;;;;;;;;4880137;29;20191;-82
2022/03/10 09:15:14;;;;;;;17.13;6.27;;;;;;;;;;4880667;29;20194;-84
2022/03/10 09:17:40;;;;;;;14.43;5.73;;;;;;;;;;4881183;29;20197;-84
2022/03/10 09:20:07;;;;;;;14.23;7.27;;;;;;;;;;4864833;29;20205;-84
2022/03/10 09:22:33;;;;;;;10.37;4.80;;;;;;;;;;4879295;29;20258;-84
2022/03/10 09:25:02;;;;;;;13.37;6.80;;;;;;;;;;4879801;29;20223;-83
2022/03/10 09:27:29;;;;;;;15.27;7.40;;;;;;;;;;4880187;29;20304;-83
2022/03/10 09:29:55;;;;;;;8.20;5.37;;;;;;;;;;4864486;29;20194;-83
2022/03/10 09:32:21;;;;;;;8.43;4.80;;;;;;;;;;4880216;29;20186;-83
2022/03/10 09:34:47;;;;;;;6.93;4.37;;;;;;;;;;4879604;29;20276;-84
2022/03/10 09:37:13;;;;;;;6.30;4.23;;;;;;;;;;4880615;29;20220;-84
2022/03/10 09:39:39;;;;;;;8.43;4.33;;;;;;;;;;4864137;29;20196;-84
2022/03/10 09:42:06;;;;;;;10.47;4.67;;;0.10;99.90;;;;;;4879752;29;20635;-85
2022/03/10 09:44:35;;;;;;;10.83;5.30;;;0.50;91.90;;;;;;4879369;29;20206;-88
2022/03/10 09:47:03;;;;;;;8.97;4.83;;;0.80;90.50;;;;;;4864140;29;20195;-83
2022/03/10 09:49:33;;;;;;;7.57;4.63;;;0.70;84.20;;;;;;4879170;29;20253;-84
2022/03/10 09:51:59;;;;;;;7.90;4.27;;;;;;;;;;4879286;29;20190;-84
2022/03/10 09:54:25;;;;;;;8.40;4.30;;;;;;;;;;4863711;29;20339;-85
2022/03/10 09:56:52;;;;;;;11.87;4.43;;;;;;;;;;4879610;29;20669;-84
2022/03/10 09:59:20;;;;;;;12.13;5.60;;;1.10;79.40;;;;;;4880645;29;20182;-84
2022/03/10 10:01:46;;;;;;;5.93;4.00;;;;;;;;;;4887717;29;20274;-84
2022/03/10 10:04:14;;;;;;;13.27;5.37;;;;;;;;;;4880236;29;20194;-86
2022/03/10 10:07:10;;;;;;;17.03;6.80;;;1.20;92.60;;;;;;4884062;29;20242;-85
2022/03/10 10:09:50;;;;;;;7.63;4.70;;;1.30;77.90;;;;;;4880190;29;20199;-85
2022/03/10 10:12:17;;;;;;;11.27;5.33;;;;;;;;;;4878804;29;20184;-84
2022/03/10 10:14:44;;;;;;;8.90;4.87;;;1.40;73.90;;;;;;4878951;29;20184;-84
2022/03/10 10:17:10;;;;;;;10.20;5.03;;;;;;;;;;4878750;29;20182;-84
2022/03/10 10:19:38;;;;;;;8.13;4.40;;;0.70;77.10;;;;;;4878759;29;20191;-89
2022/03/10 10:22:20;;;;;;;9.80;5.10;;;0.50;93.20;;;;;;4879031;29;20275;-84
2022/03/10 10:24:49;;;;;;;7.33;4.50;;;0.10;90.60;;;;;;4878427;29;20233;-84
2022/03/10 10:27:21;;;;;;;13.90;5.10;;;0.20;95.60;;;;;;4879821;29;20201;-84
2022/03/10 10:29:54;;;;;;;8.20;4.77;;;0.50;91.30;;;;;;4878386;29;20601;-85
2022/03/10 10:32:32;;;;;;;6.93;4.47;;;0.30;78.60;;;;;;4879991;29;20178;-85
2022/03/10 10:35:09;;;;;;;8.67;6.00;;;0.10;92.10;;;;;;4878339;29;20721;-83
2022/03/10 10:37:37;;;;;;;8.73;5.33;;;0.10;80.50;;;;;;4878344;29;20194;-86
2022/03/10 10:40:05;;;;;;;8.10;4.60;;;0.00;92.90;;;;;;4878993;29;20217;-83
2022/03/10 10:42:33;;;;;;;8.60;4.50;;;0.20;78.50;;;;;;4881500;29;20236;-82
2022/03/10 10:45:00;;;;;;;7.80;5.40;;;;;;;;;;4878538;29;20244;-82
2022/03/10 10:47:27;;;;;;;8.60;4.23;;;0.50;79.70;;;;;;4863389;29;20628;-85
2022/03/10 10:50:05;;;;;;;10.90;4.70;;;0.70;92.30;;;;;;4878655;29;20182;-84
2022/03/10 10:52:41;;;;;;;5.17;3.87;;;0.80;91.50;;;;;;4878856;29;20541;-82
2022/03/10 10:55:10;;;;;;;6.23;4.10;;;1.10;91.70;;;;;;4878527;29;20247;-83
2022/03/10 10:57:38;;;;;;;10.83;5.07;;;1.20;74.10;;;;;;4879880;29;20269;-83
2022/03/10 11:00:09;;;;;;;5.03;3.70;;;1.20;70.30;;;;;;4878763;29;20193;-84
2022/03/10 11:02:39;;;;;;;6.30;3.63;;;1.20;67.30;;;;;;4879694;29;20535;-84
2022/03/10 11:05:08;;;;;;;11.40;5.30;;;1.00;86.40;;;;;;4878520;29;20234;-84
2022/03/10 11:07:34;;;;;;;8.43;4.63;;;;;;;;;;4879204;29;21020;-83
2022/03/10 11:10:02;;;;;;;6.80;4.23;;;;;;;;;;4878478;29;20195;-86
2022/03/10 11:12:29;;;;;;;8.37;4.87;;;;;;;;;;4878940;29;20598;-84
2022/03/10 11:14:55;;;;;;;7.23;4.37;;;;;;;;;;4878699;29;20190;-84
2022/03/10 11:17:22;;;;;;;8.50;4.60;;;;;;;;;;4863065;29;20200;-83
2022/03/10 11:19:50;;;;;;;9.20;4.97;;;1.90;68.10;;;;;;4878481;29;20201;-84
2022/03/10 11:22:33;;;;;;;9.47;5.60;;;1.90;63.80;;;;;;4879898;29;20188;-84
2022/03/10 11:25:08;;;;;;;12.63;6.13;;;1.50;82.20;;;;;;4878726;29;20678;-86
2022/03/10 11:27:47;;;;;;;10.40;5.67;;;1.60;81.70;;;;;;4881498;29;20200;-85
2022/03/10 11:30:13;;;;;;;11.33;5.10;;;;;;;;;;4884391;29;20633;-84
2022/03/10 11:32:40;;;;;;;9.97;5.93;;;;;;;;;;4884540;29;20204;-84
2022/03/10 11:35:15;;;;;;;12.77;6.40;;;0.90;88.70;;;;;;4885242;29;20201;-84
2022/03/10 11:37:41;;;;;;;7.73;5.03;;;;;;;;;;4869196;29;20288;-85
2022/03/10 11:40:10;;;;;;;8.30;4.57;;;1.00;87.60;;;;;;4883398;29;20541;-85
2022/03/10 11:42:37;;;;;;;11.00;5.33;;;0.50;70.70;;;;;;4884244;29;20630;-83
2022/03/10 11:45:07;;;;;;;21.73;6.03;;;0.20;85.50;;;;;;4887193;29;20230;-84
2022/03/10 11:47:33;;;;;;;9.93;5.67;;;;;;;;;;4884890;29;20204;-82
2022/03/10 11:50:24;;;;;;;10.07;5.03;;;0.60;70.80;;;;;;4883556;29;20252;-84
2022/03/10 11:53:01;;;;;;;7.03;4.83;;;0.60;70.50;;;;;;4881744;29;20249;-85
2022/03/10 11:55:50;;;;;;;5.93;3.83;;;1.00;88.80;;;;;;4881823;29;20654;-83
2022/03/10 11:58:17;;;;;;;9.10;4.60;;;1.00;68.70;;;;;;4882784;29;20176;-83
2022/03/10 12:00:44;;;;;;;8.37;4.93;;;;;;;;;;4881494;29;20226;-83
2022/03/10 12:03:10;;;;;;;8.60;4.70;;;;;;;;;;4882535;29;20173;-82
2022/03/10 12:05:57;;;;;;;7.37;4.60;;;1.70;63.10;;;;;;4881329;29;20220;-85
2022/03/10 12:08:29;;;;;;;7.40;4.13;;;1.70;65.80;;;;;;4881451;29;20272;-84
2022/03/10 12:10:56;;;;;;;7.70;4.90;;;2.00;66.70;;;;;;4882498;29;20233;-85
2022/03/10 12:13:40;;;;;;;11.90;5.90;;;1.50;78.70;;;;;;4850394;29;20277;-85
2022/03/10 12:16:28;;;;;;;8.33;4.37;;;1.50;82.70;;;;;;4866048;29;20219;-84
2022/03/10 12:18:55;;;;;;;10.23;6.07;;;2.00;64.60;;;;;;4880860;29;20193;-85
2022/03/10 12:21:26;;;;;;;8.77;5.13;;;1.40;62.00;;;;;;4881639;29;20265;-83
2022/03/10 12:24:02;;;;;;;8.83;5.67;;;1.30;81.40;;;;;;4881830;29;20178;-85
2022/03/10 12:26:37;;;;;;;15.07;6.03;;;1.10;82.00;;;;;;4881404;29;20221;-83
2022/03/10 12:29:07;;;;;;;9.20;5.87;;;1.00;83.80;;;;;;4882186;29;20209;-84
2022/03/10 12:31:35;;;;;;;6.27;3.83;;;1.30;66.30;;;;;;4880954;29;20203;-84
2022/03/10 12:34:09;;;;;;;7.13;4.60;;;1.90;65.30;;;;;;4881356;29;20595;-85
2022/03/10 12:36:43;;;;;;;8.70;4.70;;;2.30;64.00;;;;;;4880861;29;20186;-84
2022/03/10 12:39:21;;;;;;;7.33;4.50;;;2.20;78.30;;;;;;4879908;29;20198;-86
2022/03/10 12:41:51;;;;;;;15.53;6.20;;;2.80;60.60;;;;;;4873604;29;20600;-84
2022/03/10 12:44:18;;;;;;;10.13;5.17;;;3.00;58.80;;;;;;4866079;29;20310;-86
2022/03/10 12:46:45;;;;;;;9.13;4.73;;;3.50;59.70;;;;;;4863062;29;20203;-86
2022/03/10 12:49:30;;;;;;;12.70;7.20;;;3.70;75.20;;;;;;4874097;29;20183;-86
2022/03/10 12:51:57;;;;;;;8.33;5.20;;;;;;;;;;4862304;29;20530;-85
2022/03/10 12:54:23;;;;;;;10.13;5.87;;;;;;;;;;4861734;29;20234;-85
2022/03/10 12:56:54;;;;;;;11.07;5.73;;;3.50;56.50;;;;;;4863096;29;20191;-85
2022/03/10 12:59:30;;;;;;;6.03;4.20;;;2.70;55.50;;;;;;4862995;29;20211;-88
2022/03/10 13:02:10;;;;;;;5.83;3.73;;;1.80;57.70;;;;;;4870512;29;20196;-88
2022/03/10 13:04:36;;;;;;;7.27;4.47;;;;;;;;;;4880610;29;20589;-84
2022/03/10 13:07:02;;;;;;;6.47;4.17;;;;;;;;;;4862948;29;20223;-84
2022/03/10 13:09:28;;;;;;;7.53;5.13;;;;;;;;;;4879956;29;20182;-85
2022/03/10 13:11:58;;;;;;;7.73;4.23;;;2.10;74.90;;;;;;4864900;29;20199;-85
2022/03/10 13:14:24;;;;;;;11.23;5.80;;;;;;;;;;4864673;29;20197;-85
2022/03/10 13:16:50;;;;;;;18.10;10.80;;;;;;;;;;4876541;29;20186;-85
2022/03/10 13:19:25;;;;;;;7.60;4.10;;;4.30;67.70;;;;;;4871012;29;21039;-86
2022/03/10 13:21:55;;;;;;;16.07;8.37;;;5.70;65.20;;;;;;4872184;29;20225;-86
2022/03/10 13:24:36;;;;;;;8.70;4.73;;;5.60;64.50;;;;;;4869818;29;20200;-83
2022/03/10 13:27:04;;;;;;;8.47;4.60;;;5.50;51.20;;;;;;4874068;29;20186;-85
2022/03/10 13:29:32;;;;;;;7.50;4.40;;;4.60;51.00;;;;;;4863129;29;20600;-87
2022/03/10 13:31:58;;;;;;;7.43;4.97;;;;;;;;;;4857905;29;20223;-85
2022/03/10 13:34:24;;;;;;;8.43;4.93;;;;;;;;;;4871391;29;20179;-85
2022/03/10 13:36:51;;;;;;;11.40;6.90;;;5.50;50.10;;;;;;4873759;29;20550;-85
2022/03/10 13:39:22;;;;;;;8.27;5.17;;;5.80;50.20;;;;;;4837767;29;20215;-86
2022/03/10 13:41:51;;;;;;;8.53;4.50;;;;;;;;;;4870093;29;20184;-85
2022/03/10 13:44:17;;;;;;;6.57;4.37;;;;;;;;;;4879046;29;20234;-85
2022/03/10 13:46:43;;;;;;;9.07;4.70;;;;;;;;;;4874049;29;20237;-86
2022/03/10 13:49:21;;;;;;;9.67;4.70;;;7.40;58.70;;;;;;4875132;29;20186;-85
2022/03/10 13:51:48;;;;;;;6.77;4.40;;;7.40;48.10;;;;;;4871326;29;20262;-84
2022/03/10 13:54:15;;;;;;;10.33;5.20;;;;;;;;;;4860175;29;20286;-84
2022/03/10 13:56:44;;;;;;;14.27;6.73;;;6.20;48.80;;;;;;4861059;29;20230;-87